sensor_id;sensor_type;location;lat;lon;timestamp;pressure;altitude;pressure_sealevel;temperature
65738;BMP280;52478;51.844;6.582;2024-03-06T00:02:04;101499.66;;;19.70
65738;BMP280;52478;51.844;6.582;2024-03-06T00:04:31;101498.94;;;19.75
65738;BMP280;52478;51.844;6.582;2024-03-06T00:06:57;101503.50;;;19.72
65738;BMP280;52478;51.844;6.582;2024-03-06T00:09:24;101495.88;;;19.67
65738;BMP280;52478;51.844;6.582;2024-03-06T00:11:53;101498.16;;;19.69
65738;BMP280;52478;51.844;6.582;2024-03-06T00:14:20;101498.91;;;19.69
65738;BMP280;52478;51.844;6.582;2024-03-06T00:16:47;101509.00;;;19.67
65738;BMP280;52478;51.844;6.582;2024-03-06T00:19:15;101507.00;;;19.67
65738;BMP280;52478;51.844;6.582;2024-03-06T00:21:41;101509.47;;;19.65
65738;BMP280;52478;51.844;6.582;2024-03-06T00:24:08;101518.09;;;19.67
65738;BMP280;52478;51.844;6.582;2024-03-06T00:26:34;101521.59;;;19.62
65738;BMP280;52478;51.844;6.582;2024-03-06T00:29:02;101521.81;;;19.59
65738;BMP280;52478;51.844;6.582;2024-03-06T00:31:29;101517.25;;;19.61
65738;BMP280;52478;51.844;6.582;2024-03-06T00:33:55;101526.63;;;19.58
65738;BMP280;52478;51.844;6.582;2024-03-06T00:36:22;101523.06;;;19.58
65738;BMP280;52478;51.844;6.582;2024-03-06T00:38:48;101526.63;;;19.58
65738;BMP280;52478;51.844;6.582;2024-03-06T00:41:15;101524.56;;;19.53
65738;BMP280;52478;51.844;6.582;2024-03-06T00:43:41;101540.22;;;19.56
65738;BMP280;52478;51.844;6.582;2024-03-06T00:46:09;101532.63;;;19.51
65738;BMP280;52478;51.844;6.582;2024-03-06T00:48:36;101532.09;;;19.47
65738;BMP280;52478;51.844;6.582;2024-03-06T00:51:04;101529.78;;;19.46
65738;BMP280;52478;51.844;6.582;2024-03-06T00:53:31;101525.00;;;19.46
65738;BMP280;52478;51.844;6.582;2024-03-06T00:55:58;101525.00;;;19.46
65738;BMP280;52478;51.844;6.582;2024-03-06T00:58:24;101535.06;;;19.44
65738;BMP280;52478;51.844;6.582;2024-03-06T01:00:51;101530.78;;;19.43
65738;BMP280;52478;51.844;6.582;2024-03-06T01:03:18;101536.75;;;19.36
65738;BMP280;52478;51.844;6.582;2024-03-06T01:05:45;101532.97;;;19.33
65738;BMP280;52478;51.844;6.582;2024-03-06T01:08:12;101536.59;;;19.39
65738;BMP280;52478;51.844;6.582;2024-03-06T01:10:38;101542.84;;;19.40
65738;BMP280;52478;51.844;6.582;2024-03-06T01:13:05;101537.81;;;19.38
65738;BMP280;52478;51.844;6.582;2024-03-06T01:15:31;101539.34;;;19.39
65738;BMP280;52478;51.844;6.582;2024-03-06T01:17:58;101546.69;;;19.42
65738;BMP280;52478;51.844;6.582;2024-03-06T01:20:26;101541.91;;;19.43
65738;BMP280;52478;51.844;6.582;2024-03-06T01:22:53;101545.38;;;19.38
65738;BMP280;52478;51.844;6.582;2024-03-06T01:25:19;101548.72;;;19.42
65738;BMP280;52478;51.844;6.582;2024-03-06T01:27:47;101545.16;;;19.41
65738;BMP280;52478;51.844;6.582;2024-03-06T01:30:14;101549.19;;;19.40
65738;BMP280;52478;51.844;6.582;2024-03-06T01:32:41;101553.47;;;19.41
65738;BMP280;52478;51.844;6.582;2024-03-06T01:35:07;101559.03;;;19.41
65738;BMP280;52478;51.844;6.582;2024-03-06T01:37:35;101558.25;;;19.41
65738;BMP280;52478;51.844;6.582;2024-03-06T01:40:02;101558.56;;;19.43
65738;BMP280;52478;51.844;6.582;2024-03-06T01:42:30;101560.78;;;19.39
65738;BMP280;52478;51.844;6.582;2024-03-06T01:44:57;101561.00;;;19.35
65738;BMP280;52478;51.844;6.582;2024-03-06T01:47:23;101567.28;;;19.30
65738;BMP280;52478;51.844;6.582;2024-03-06T01:49:50;101562.47;;;19.31
65738;BMP280;52478;51.844;6.582;2024-03-06T01:52:18;101569.75;;;19.28
65738;BMP280;52478;51.844;6.582;2024-03-06T01:54:48;101562.22;;;19.29
65738;BMP280;52478;51.844;6.582;2024-03-06T01:57:16;101561.75;;;19.30
65738;BMP280;52478;51.844;6.582;2024-03-06T01:59:43;101563.97;;;19.26
65738;BMP280;52478;51.844;6.582;2024-03-06T02:02:10;101566.44;;;19.24
65738;BMP280;52478;51.844;6.582;2024-03-06T02:04:37;101562.41;;;19.25
65738;BMP280;52478;51.844;6.582;2024-03-06T02:07:08;101572.84;;;19.30
65738;BMP280;52478;51.844;6.582;2024-03-06T02:09:35;101566.75;;;19.26
65738;BMP280;52478;51.844;6.582;2024-03-06T02:12:03;101571.72;;;19.22
65738;BMP280;52478;51.844;6.582;2024-03-06T02:14:30;101569.44;;;19.21
65738;BMP280;52478;51.844;6.582;2024-03-06T02:16:57;101574.47;;;19.17
65738;BMP280;52478;51.844;6.582;2024-03-06T02:19:23;101574.47;;;19.17
65738;BMP280;52478;51.844;6.582;2024-03-06T02:21:53;101572.47;;;19.17
65738;BMP280;52478;51.844;6.582;2024-03-06T02:24:19;101575.41;;;19.14
65738;BMP280;52478;51.844;6.582;2024-03-06T02:26:46;101574.38;;;19.11
65738;BMP280;52478;51.844;6.582;2024-03-06T02:29:12;101574.69;;;19.13
65738;BMP280;52478;51.844;6.582;2024-03-06T02:31:40;101576.88;;;19.09
65738;BMP280;52478;51.844;6.582;2024-03-06T02:34:07;101576.66;;;19.07
65738;BMP280;52478;51.844;6.582;2024-03-06T02:36:33;101577.47;;;19.13
65738;BMP280;52478;51.844;6.582;2024-03-06T02:39:02;101575.88;;;19.07
65738;BMP280;52478;51.844;6.582;2024-03-06T02:41:34;101573.31;;;19.03
65738;BMP280;52478;51.844;6.582;2024-03-06T02:44:00;101580.09;;;19.02
65738;BMP280;52478;51.844;6.582;2024-03-06T02:46:27;101575.78;;;19.01
65738;BMP280;52478;51.844;6.582;2024-03-06T02:48:53;101579.41;;;19.07
65738;BMP280;52478;51.844;6.582;2024-03-06T02:51:20;101575.63;;;19.10
65738;BMP280;52478;51.844;6.582;2024-03-06T02:53:47;101571.41;;;19.15
65738;BMP280;52478;51.844;6.582;2024-03-06T02:56:16;101573.19;;;19.18
65738;BMP280;52478;51.844;6.582;2024-03-06T02:58:43;101583.25;;;19.15
65738;BMP280;52478;51.844;6.582;2024-03-06T03:01:10;101582.44;;;19.09
65738;BMP280;52478;51.844;6.582;2024-03-06T03:03:36;101582.72;;;19.11
65738;BMP280;52478;51.844;6.582;2024-03-06T03:06:03;101576.97;;;19.15
65738;BMP280;52478;51.844;6.582;2024-03-06T03:08:29;101575.41;;;19.14
65738;BMP280;52478;51.844;6.582;2024-03-06T03:10:56;101576.50;;;19.16
65738;BMP280;52478;51.844;6.582;2024-03-06T03:13:24;101584.81;;;19.16
65738;BMP280;52478;51.844;6.582;2024-03-06T03:15:50;101579.47;;;19.13
65738;BMP280;52478;51.844;6.582;2024-03-06T03:18:17;101583.97;;;19.10
65738;BMP280;52478;51.844;6.582;2024-03-06T03:20:44;101581.19;;;19.10
65738;BMP280;52478;51.844;6.582;2024-03-06T03:23:10;101582.41;;;19.04
65738;BMP280;52478;51.844;6.582;2024-03-06T03:25:39;101584.81;;;18.96
65738;BMP280;52478;51.844;6.582;2024-03-06T03:28:06;101584.13;;;19.01
65738;BMP280;52478;51.844;6.582;2024-03-06T03:30:34;101587.19;;;19.03
65738;BMP280;52478;51.844;6.582;2024-03-06T03:33:00;101587.41;;;19.00
65738;BMP280;52478;51.844;6.582;2024-03-06T03:35:27;101586.66;;;18.99
65738;BMP280;52478;51.844;6.582;2024-03-06T03:37:54;101592.19;;;18.99
65738;BMP280;52478;51.844;6.582;2024-03-06T03:40:21;101595.22;;;19.01
65738;BMP280;52478;51.844;6.582;2024-03-06T03:42:48;101601.78;;;18.98
65738;BMP280;52478;51.844;6.582;2024-03-06T03:45:15;101604.25;;;18.96
65738;BMP280;52478;51.844;6.582;2024-03-06T03:47:43;101606.53;;;18.98
65738;BMP280;52478;51.844;6.582;2024-03-06T03:50:09;101611.31;;;18.97
65738;BMP280;52478;51.844;6.582;2024-03-06T03:52:36;101611.13;;;19.01
65738;BMP280;52478;51.844;6.582;2024-03-06T03:55:06;101617.41;;;19.01
65738;BMP280;52478;51.844;6.582;2024-03-06T03:57:33;101606.31;;;19.01
65738;BMP280;52478;51.844;6.582;2024-03-06T03:59:59;101619.16;;;18.99
65738;BMP280;52478;51.844;6.582;2024-03-06T04:02:26;101619.63;;;18.97
65738;BMP280;52478;51.844;6.582;2024-03-06T04:04:53;101626.94;;;18.95
65738;BMP280;52478;51.844;6.582;2024-03-06T04:07:20;101619.38;;;18.95
65738;BMP280;52478;51.844;6.582;2024-03-06T04:09:46;101616.31;;;18.93
65738;BMP280;52478;51.844;6.582;2024-03-06T04:12:13;101625.41;;;18.94
65738;BMP280;52478;51.844;6.582;2024-03-06T04:14:40;101625.88;;;18.92
65738;BMP280;52478;51.844;6.582;2024-03-06T04:17:06;101626.88;;;18.90
65738;BMP280;52478;51.844;6.582;2024-03-06T04:19:32;101624.38;;;18.92
65738;BMP280;52478;51.844;6.582;2024-03-06T04:22:00;101616.97;;;18.83
65738;BMP280;52478;51.844;6.582;2024-03-06T04:24:27;101622.91;;;18.76
65738;BMP280;52478;51.844;6.582;2024-03-06T04:26:54;101629.25;;;18.77
65738;BMP280;52478;51.844;6.582;2024-03-06T04:29:20;101631.53;;;18.78
65738;BMP280;52478;51.844;6.582;2024-03-06T04:31:47;101631.00;;;18.80
65738;BMP280;52478;51.844;6.582;2024-03-06T04:34:13;101633.88;;;18.85
65738;BMP280;52478;51.844;6.582;2024-03-06T04:36:39;101638.94;;;18.87
65738;BMP280;52478;51.844;6.582;2024-03-06T04:39:07;101646.31;;;18.90
65738;BMP280;52478;51.844;6.582;2024-03-06T04:41:35;101649.84;;;18.90
65738;BMP280;52478;51.844;6.582;2024-03-06T04:44:01;101656.16;;;18.91
65738;BMP280;52478;51.844;6.582;2024-03-06T04:46:28;101652.13;;;18.92
65738;BMP280;52478;51.844;6.582;2024-03-06T04:48:55;101656.34;;;18.87
65738;BMP280;52478;51.844;6.582;2024-03-06T04:51:21;101666.13;;;18.83
65738;BMP280;52478;51.844;6.582;2024-03-06T04:53:48;101670.16;;;18.82
65738;BMP280;52478;51.844;6.582;2024-03-06T04:56:16;101665.56;;;18.79
65738;BMP280;52478;51.844;6.582;2024-03-06T04:58:44;101674.19;;;18.81
65738;BMP280;52478;51.844;6.582;2024-03-06T05:01:09;101678.19;;;18.80
65738;BMP280;52478;51.844;6.582;2024-03-06T05:03:36;101682.19;;;18.79
65738;BMP280;52478;51.844;6.582;2024-03-06T05:06:03;101681.16;;;18.76
65738;BMP280;52478;51.844;6.582;2024-03-06T05:08:30;101684.41;;;18.75
65738;BMP280;52478;51.844;6.582;2024-03-06T05:10:58;101691.78;;;18.78
65738;BMP280;52478;51.844;6.582;2024-03-06T05:13:26;101690.28;;;18.77
65738;BMP280;52478;51.844;6.582;2024-03-06T05:15:53;101696.06;;;18.79
65738;BMP280;52478;51.844;6.582;2024-03-06T05:18:20;101695.88;;;18.82
65738;BMP280;52478;51.844;6.582;2024-03-06T05:20:47;101699.16;;;18.81
65738;BMP280;52478;51.844;6.582;2024-03-06T05:23:13;101707.94;;;18.79
65738;BMP280;52478;51.844;6.582;2024-03-06T05:25:39;101706.13;;;18.76
65738;BMP280;52478;51.844;6.582;2024-03-06T05:28:06;101718.97;;;18.74
65738;BMP280;52478;51.844;6.582;2024-03-06T05:30:34;101724.50;;;18.74
65738;BMP280;52478;51.844;6.582;2024-03-06T05:33:01;101713.41;;;18.74
65738;BMP280;52478;51.844;6.582;2024-03-06T05:35:27;101721.16;;;18.70
65738;BMP280;52478;51.844;6.582;2024-03-06T05:37:54;101730.75;;;18.69
65738;BMP280;52478;51.844;6.582;2024-03-06T05:40:20;101727.69;;;18.67
65738;BMP280;52478;51.844;6.582;2024-03-06T05:42:47;101736.06;;;18.72
65738;BMP280;52478;51.844;6.582;2024-03-06T05:45:13;101737.41;;;18.77
65738;BMP280;52478;51.844;6.582;2024-03-06T05:47:41;101746.47;;;18.92
65738;BMP280;52478;51.844;6.582;2024-03-06T05:50:08;101739.44;;;18.96
65738;BMP280;52478;51.844;6.582;2024-03-06T05:52:36;101750.41;;;19.05
65738;BMP280;52478;51.844;6.582;2024-03-06T05:55:03;101753.25;;;19.10
65738;BMP280;52478;51.844;6.582;2024-03-06T05:57:31;101750.22;;;19.08
65738;BMP280;52478;51.844;6.582;2024-03-06T05:59:57;101756.34;;;19.12
65738;BMP280;52478;51.844;6.582;2024-03-06T06:02:24;101760.34;;;19.11
65738;BMP280;52478;51.844;6.582;2024-03-06T06:04:52;101752.00;;;19.11
65738;BMP280;52478;51.844;6.582;2024-03-06T06:07:18;101754.03;;;19.11
65738;BMP280;52478;51.844;6.582;2024-03-06T06:09:44;101763.41;;;19.13
65738;BMP280;52478;51.844;6.582;2024-03-06T06:12:11;101766.19;;;19.13
65738;BMP280;52478;51.844;6.582;2024-03-06T06:14:37;101769.22;;;19.15
65738;BMP280;52478;51.844;6.582;2024-03-06T06:17:04;101768.81;;;19.22
65738;BMP280;52478;51.844;6.582;2024-03-06T06:19:30;101767.66;;;19.29
65738;BMP280;52478;51.844;6.582;2024-03-06T06:21:58;101775.50;;;19.30
65738;BMP280;52478;51.844;6.582;2024-03-06T06:24:25;101764.09;;;19.28
65738;BMP280;52478;51.844;6.582;2024-03-06T06:26:51;101773.69;;;19.27
65738;BMP280;52478;51.844;6.582;2024-03-06T06:29:17;101776.44;;;19.27
65738;BMP280;52478;51.844;6.582;2024-03-06T06:31:45;101780.75;;;19.28
65738;BMP280;52478;51.844;6.582;2024-03-06T06:34:11;101784.16;;;19.38
65738;BMP280;52478;51.844;6.582;2024-03-06T06:36:37;101785.75;;;19.44
65738;BMP280;52478;51.844;6.582;2024-03-06T06:39:07;101783.72;;;19.45
65738;BMP280;52478;51.844;6.582;2024-03-06T06:41:35;101800.19;;;19.48
65738;BMP280;52478;51.844;6.582;2024-03-06T06:44:02;101802.41;;;19.44
65738;BMP280;52478;51.844;6.582;2024-03-06T06:46:28;101810.75;;;19.44
65738;BMP280;52478;51.844;6.582;2024-03-06T06:48:55;101810.75;;;19.44
65738;BMP280;52478;51.844;6.582;2024-03-06T06:51:22;101814.78;;;19.43
65738;BMP280;52478;51.844;6.582;2024-03-06T06:53:49;101808.25;;;19.46
65738;BMP280;52478;51.844;6.582;2024-03-06T06:56:17;101816.31;;;19.44
65738;BMP280;52478;51.844;6.582;2024-03-06T06:58:44;101820.31;;;19.43
65738;BMP280;52478;51.844;6.582;2024-03-06T07:01:11;101827.59;;;19.41
65738;BMP280;52478;51.844;6.582;2024-03-06T07:03:37;101837.00;;;19.43
65738;BMP280;52478;51.844;6.582;2024-03-06T07:06:04;101832.97;;;19.44
65738;BMP280;52478;51.844;6.582;2024-03-06T07:08:31;101837.06;;;19.49
65738;BMP280;52478;51.844;6.582;2024-03-06T07:10:57;101842.69;;;19.54
65738;BMP280;52478;51.844;6.582;2024-03-06T07:13:25;101840.19;;;19.56
65738;BMP280;52478;51.844;6.582;2024-03-06T07:15:52;101832.69;;;19.62
65738;BMP280;52478;51.844;6.582;2024-03-06T07:18:18;101837.25;;;19.65
65738;BMP280;52478;51.844;6.582;2024-03-06T07:20:44;101834.78;;;19.67
65738;BMP280;52478;51.844;6.582;2024-03-06T07:23:12;101838.59;;;19.70
65738;BMP280;52478;51.844;6.582;2024-03-06T07:25:39;101840.88;;;19.71
65738;BMP280;52478;51.844;6.582;2024-03-06T07:28:05;101837.41;;;19.76
65738;BMP280;52478;51.844;6.582;2024-03-06T07:30:33;101844.75;;;19.79
65738;BMP280;52478;51.844;6.582;2024-03-06T07:33:00;101845.59;;;19.85
65738;BMP280;52478;51.844;6.582;2024-03-06T07:35:26;101847.69;;;19.90
65738;BMP280;52478;51.844;6.582;2024-03-06T07:37:53;101845.72;;;19.96
65738;BMP280;52478;51.844;6.582;2024-03-06T07:40:19;101852.88;;;20.03
65738;BMP280;52478;51.844;6.582;2024-03-06T07:42:46;101855.41;;;20.06
65738;BMP280;52478;51.844;6.582;2024-03-06T07:45:12;101858.47;;;20.08
65738;BMP280;52478;51.844;6.582;2024-03-06T07:47:40;101866.13;;;20.13
65738;BMP280;52478;51.844;6.582;2024-03-06T07:50:08;101861.38;;;20.19
65738;BMP280;52478;51.844;6.582;2024-03-06T07:52:36;101866.97;;;20.24
65738;BMP280;52478;51.844;6.582;2024-03-06T07:55:02;101871.06;;;20.29
65738;BMP280;52478;51.844;6.582;2024-03-06T07:57:30;101875.16;;;20.33
65738;BMP280;52478;51.844;6.582;2024-03-06T07:59:57;101869.38;;;20.37
65738;BMP280;52478;51.844;6.582;2024-03-06T08:02:23;101867.13;;;20.41
65738;BMP280;52478;51.844;6.582;2024-03-06T08:04:51;101876.78;;;20.45
65738;BMP280;52478;51.844;6.582;2024-03-06T08:07:17;101882.13;;;20.49
65738;BMP280;52478;51.844;6.582;2024-03-06T08:09:43;101880.41;;;20.51
65738;BMP280;52478;51.844;6.582;2024-03-06T08:12:10;101883.19;;;20.57
65738;BMP280;52478;51.844;6.582;2024-03-06T08:14:36;101886.28;;;20.59
65738;BMP280;52478;51.844;6.582;2024-03-06T08:17:03;101883.00;;;20.60
65738;BMP280;52478;51.844;6.582;2024-03-06T08:19:29;101881.25;;;20.63
65738;BMP280;52478;51.844;6.582;2024-03-06T08:21:57;101885.81;;;20.66
65738;BMP280;52478;51.844;6.582;2024-03-06T08:24:23;101891.91;;;20.70
65738;BMP280;52478;51.844;6.582;2024-03-06T08:26:50;101900.56;;;20.72
65738;BMP280;52478;51.844;6.582;2024-03-06T08:29:16;101893.97;;;20.75
65738;BMP280;52478;51.844;6.582;2024-03-06T08:31:43;101899.34;;;20.78
65738;BMP280;52478;51.844;6.582;2024-03-06T08:34:09;101897.56;;;20.81
65738;BMP280;52478;51.844;6.582;2024-03-06T08:36:36;101912.47;;;20.78
65738;BMP280;52478;51.844;6.582;2024-03-06T08:39:03;101910.94;;;20.46
65738;BMP280;52478;51.844;6.582;2024-03-06T08:41:32;101908.22;;;20.51
65738;BMP280;52478;51.844;6.582;2024-03-06T08:43:58;101915.63;;;20.60
65738;BMP280;52478;51.844;6.582;2024-03-06T08:46:24;101918.22;;;20.69
65738;BMP280;52478;51.844;6.582;2024-03-06T08:48:51;101919.31;;;20.77
65738;BMP280;52478;51.844;6.582;2024-03-06T08:51:17;101931.50;;;20.85
65738;BMP280;52478;51.844;6.582;2024-03-06T08:53:44;101924.47;;;20.89
65738;BMP280;52478;51.844;6.582;2024-03-06T08:56:12;101926.28;;;20.92
65738;BMP280;52478;51.844;6.582;2024-03-06T08:58:38;101931.63;;;20.96
65738;BMP280;52478;51.844;6.582;2024-03-06T09:01:05;101932.16;;;21.00
65738;BMP280;52478;51.844;6.582;2024-03-06T09:03:31;101941.03;;;21.04
65738;BMP280;52478;51.844;6.582;2024-03-06T09:05:58;101937.25;;;21.07
65738;BMP280;52478;51.844;6.582;2024-03-06T09:08:25;101944.63;;;21.10
65738;BMP280;52478;51.844;6.582;2024-03-06T09:10:52;101943.63;;;21.13
65738;BMP280;52478;51.844;6.582;2024-03-06T09:13:19;101951.75;;;21.16
65738;BMP280;52478;51.844;6.582;2024-03-06T09:15:46;101955.09;;;21.20
65738;BMP280;52478;51.844;6.582;2024-03-06T09:18:12;101959.38;;;21.21
65738;BMP280;52478;51.844;6.582;2024-03-06T09:20:41;101967.50;;;21.24
65738;BMP280;52478;51.844;6.582;2024-03-06T09:23:08;101960.66;;;21.25
65738;BMP280;52478;51.844;6.582;2024-03-06T09:25:34;101960.44;;;21.29
65738;BMP280;52478;51.844;6.582;2024-03-06T09:28:01;101969.84;;;21.31
65738;BMP280;52478;51.844;6.582;2024-03-06T09:30:31;101967.31;;;21.33
65738;BMP280;52478;51.844;6.582;2024-03-06T09:32:57;101973.19;;;21.35
65738;BMP280;52478;51.844;6.582;2024-03-06T09:35:24;101980.25;;;21.36
65738;BMP280;52478;51.844;6.582;2024-03-06T09:37:50;101976.50;;;21.39
65738;BMP280;52478;51.844;6.582;2024-03-06T09:40:20;101991.38;;;21.36
65738;BMP280;52478;51.844;6.582;2024-03-06T09:42:47;101984.81;;;21.34
65738;BMP280;52478;51.844;6.582;2024-03-06T09:45:14;101983.78;;;21.31
65738;BMP280;52478;51.844;6.582;2024-03-06T09:47:42;101985.03;;;21.30
65738;BMP280;52478;51.844;6.582;2024-03-06T09:50:10;101992.13;;;21.31
65738;BMP280;52478;51.844;6.582;2024-03-06T09:52:39;101998.44;;;21.32
65738;BMP280;52478;51.844;6.582;2024-03-06T09:55:08;101996.19;;;21.30
65738;BMP280;52478;51.844;6.582;2024-03-06T09:57:35;101998.44;;;21.32
65738;BMP280;52478;51.844;6.582;2024-03-06T10:00:02;102008.06;;;21.31
65738;BMP280;52478;51.844;6.582;2024-03-06T10:02:37;102002.50;;;21.31
65738;BMP280;52478;51.844;6.582;2024-03-06T10:05:06;102000.19;;;21.29
65738;BMP280;52478;51.844;6.582;2024-03-06T10:07:46;102001.22;;;21.32
65738;BMP280;52478;51.844;6.582;2024-03-06T10:10:12;102005.56;;;21.33
65738;BMP280;52478;51.844;6.582;2024-03-06T10:12:40;102008.34;;;21.33
65738;BMP280;52478;51.844;6.582;2024-03-06T10:15:08;102012.66;;;21.34
65738;BMP280;52478;51.844;6.582;2024-03-06T10:17:37;102016.47;;;21.36
65738;BMP280;52478;51.844;6.582;2024-03-06T10:20:17;102009.16;;;21.39
65738;BMP280;52478;51.844;6.582;2024-03-06T10:22:44;102017.00;;;21.40
65738;BMP280;52478;51.844;6.582;2024-03-06T10:25:11;102021.78;;;21.40
65738;BMP280;52478;51.844;6.582;2024-03-06T10:27:37;102021.06;;;21.39
65738;BMP280;52478;51.844;6.582;2024-03-06T10:30:05;102023.56;;;21.37
65738;BMP280;52478;51.844;6.582;2024-03-06T10:32:36;102029.13;;;21.37
65738;BMP280;52478;51.844;6.582;2024-03-06T10:35:03;102028.34;;;21.37
65738;BMP280;52478;51.844;6.582;2024-03-06T10:37:33;102031.13;;;21.37
65738;BMP280;52478;51.844;6.582;2024-03-06T10:40:02;102029.38;;;21.34
65738;BMP280;52478;51.844;6.582;2024-03-06T10:42:31;102032.63;;;21.32
65738;BMP280;52478;51.844;6.582;2024-03-06T10:44:59;102025.31;;;21.35
65738;BMP280;52478;51.844;6.582;2024-03-06T10:47:28;102024.03;;;21.36
65738;BMP280;52478;51.844;6.582;2024-03-06T10:49:55;102027.59;;;21.36
65738;BMP280;52478;51.844;6.582;2024-03-06T10:52:25;102031.44;;;21.39
65738;BMP280;52478;51.844;6.582;2024-03-06T10:54:54;102038.31;;;21.43
65738;BMP280;52478;51.844;6.582;2024-03-06T10:57:23;102044.38;;;21.47
65738;BMP280;52478;51.844;6.582;2024-03-06T10:59:50;102035.53;;;21.49
65738;BMP280;52478;51.844;6.582;2024-03-06T11:02:19;102041.41;;;21.51
65738;BMP280;52478;51.844;6.582;2024-03-06T11:04:47;102040.88;;;21.52
65738;BMP280;52478;51.844;6.582;2024-03-06T11:07:14;102041.19;;;21.54
65738;BMP280;52478;51.844;6.582;2024-03-06T11:09:40;102038.63;;;21.56
65738;BMP280;52478;51.844;6.582;2024-03-06T11:12:08;102040.44;;;21.59
65738;BMP280;52478;51.844;6.582;2024-03-06T11:14:36;102043.00;;;21.63
65738;BMP280;52478;51.844;6.582;2024-03-06T11:17:04;102042.50;;;21.64
65738;BMP280;52478;51.844;6.582;2024-03-06T11:19:32;102044.81;;;21.66
65738;BMP280;52478;51.844;6.582;2024-03-06T11:21:59;102044.28;;;21.67
65738;BMP280;52478;51.844;6.582;2024-03-06T11:24:32;102043.03;;;21.68
65738;BMP280;52478;51.844;6.582;2024-03-06T11:27:00;102044.56;;;21.69
65738;BMP280;52478;51.844;6.582;2024-03-06T11:29:29;102041.25;;;21.71
65738;BMP280;52478;51.844;6.582;2024-03-06T11:31:57;102045.09;;;21.73
65738;BMP280;52478;51.844;6.582;2024-03-06T11:34:24;102056.47;;;21.75
65738;BMP280;52478;51.844;6.582;2024-03-06T11:36:53;102047.16;;;21.78
65738;BMP280;52478;51.844;6.582;2024-03-06T11:39:20;102048.66;;;21.79
65738;BMP280;52478;51.844;6.582;2024-03-06T11:41:47;102050.19;;;21.80
65738;BMP280;52478;51.844;6.582;2024-03-06T11:44:15;102041.34;;;21.82
65738;BMP280;52478;51.844;6.582;2024-03-06T11:46:45;102045.66;;;21.83
65738;BMP280;52478;51.844;6.582;2024-03-06T11:49:15;102045.13;;;21.84
65738;BMP280;52478;51.844;6.582;2024-03-06T11:51:44;102038.34;;;21.85
65738;BMP280;52478;51.844;6.582;2024-03-06T11:54:10;102047.44;;;21.86
65738;BMP280;52478;51.844;6.582;2024-03-06T11:56:38;102041.88;;;21.86
65738;BMP280;52478;51.844;6.582;2024-03-06T11:59:05;102051.72;;;21.87
65738;BMP280;52478;51.844;6.582;2024-03-06T12:01:32;102051.25;;;21.88
65738;BMP280;52478;51.844;6.582;2024-03-06T12:04:01;102042.41;;;21.90
65738;BMP280;52478;51.844;6.582;2024-03-06T12:06:28;102046.22;;;21.92
65738;BMP280;52478;51.844;6.582;2024-03-06T12:08:54;102044.94;;;21.93
65738;BMP280;52478;51.844;6.582;2024-03-06T12:11:21;102040.63;;;21.92
65738;BMP280;52478;51.844;6.582;2024-03-06T12:13:48;102047.72;;;21.93
65738;BMP280;52478;51.844;6.582;2024-03-06T12:16:14;102046.75;;;21.96
65738;BMP280;52478;51.844;6.582;2024-03-06T12:18:41;102049.75;;;21.98
65738;BMP280;52478;51.844;6.582;2024-03-06T12:21:10;102047.28;;;22.00
65738;BMP280;52478;51.844;6.582;2024-03-06T12:23:37;102046.28;;;22.03
65738;BMP280;52478;51.844;6.582;2024-03-06T12:26:04;102048.03;;;22.01
65738;BMP280;52478;51.844;6.582;2024-03-06T12:28:32;102049.75;;;21.98
65738;BMP280;52478;51.844;6.582;2024-03-06T12:31:02;102052.84;;;22.00
65738;BMP280;52478;51.844;6.582;2024-03-06T12:33:28;102050.31;;;22.02
65738;BMP280;52478;51.844;6.582;2024-03-06T12:36:03;102055.66;;;22.06
65738;BMP280;52478;51.844;6.582;2024-03-06T12:38:31;102059.72;;;22.05
65738;BMP280;52478;51.844;6.582;2024-03-06T12:40:59;102054.66;;;22.09
65738;BMP280;52478;51.844;6.582;2024-03-06T12:43:25;102047.03;;;22.09
65738;BMP280;52478;51.844;6.582;2024-03-06T12:45:54;102051.88;;;22.09
65738;BMP280;52478;51.844;6.582;2024-03-06T12:48:22;102053.38;;;22.10
65738;BMP280;52478;51.844;6.582;2024-03-06T12:50:49;102048.84;;;22.12
65738;BMP280;52478;51.844;6.582;2024-03-06T12:53:17;102053.91;;;22.14
65738;BMP280;52478;51.844;6.582;2024-03-06T12:55:45;102054.19;;;22.16
65738;BMP280;52478;51.844;6.582;2024-03-06T12:58:12;102054.91;;;22.16
65738;BMP280;52478;51.844;6.582;2024-03-06T13:00:38;102051.88;;;22.14
65738;BMP280;52478;51.844;6.582;2024-03-06T13:03:05;102055.16;;;22.13
65738;BMP280;52478;51.844;6.582;2024-03-06T13:05:32;102052.88;;;22.11
65738;BMP280;52478;51.844;6.582;2024-03-06T13:07:58;102049.59;;;22.13
65738;BMP280;52478;51.844;6.582;2024-03-06T13:10:26;102043.53;;;22.14
65738;BMP280;52478;51.844;6.582;2024-03-06T13:12:53;102036.69;;;22.15
65738;BMP280;52478;51.844;6.582;2024-03-06T13:15:20;102045.31;;;22.17
65738;BMP280;52478;51.844;6.582;2024-03-06T13:17:47;102047.59;;;22.19
65738;BMP280;52478;51.844;6.582;2024-03-06T13:20:14;102045.56;;;22.19
65738;BMP280;52478;51.844;6.582;2024-03-06T13:22:40;102045.06;;;22.21
65738;BMP280;52478;51.844;6.582;2024-03-06T13:25:08;102047.38;;;22.22
65738;BMP280;52478;51.844;6.582;2024-03-06T13:27:34;102055.22;;;22.24
65738;BMP280;52478;51.844;6.582;2024-03-06T13:30:03;102052.94;;;22.22
65738;BMP280;52478;51.844;6.582;2024-03-06T13:32:30;102052.16;;;22.22
65738;BMP280;52478;51.844;6.582;2024-03-06T13:34:57;102050.16;;;22.22
65738;BMP280;52478;51.844;6.582;2024-03-06T13:37:23;102054.19;;;22.21
65738;BMP280;52478;51.844;6.582;2024-03-06T13:39:49;102056.75;;;22.19
65738;BMP280;52478;51.844;6.582;2024-03-06T13:42:17;102060.25;;;22.14
65738;BMP280;52478;51.844;6.582;2024-03-06T13:44:44;102062.78;;;22.12
65738;BMP280;52478;51.844;6.582;2024-03-06T13:47:15;102063.03;;;22.09
65738;BMP280;52478;51.844;6.582;2024-03-06T13:49:42;102061.72;;;22.10
65738;BMP280;52478;51.844;6.582;2024-03-06T13:52:09;102066.31;;;22.07
65738;BMP280;52478;51.844;6.582;2024-03-06T13:54:37;102067.56;;;22.06
65738;BMP280;52478;51.844;6.582;2024-03-06T13:57:04;102070.13;;;22.04